Time;durP1;ratioP1;P1;durP2;ratioP2;P2;SDS_P1;SDS_P2;PMS_P1;PMS_P2;Temp;Humidity;BMP_temperature;BMP_pressure;BME280_temperature;BME280_humidity;BME280_pressure;Samples;Min_cycle;Max_cycle;Signal;HPM_P1;HPM_P2
2023/04/05 00:00:53;;;;;;;15.48;11.63;;;;;;;2.13;82.86;102263.41;6238586;23;20012;-84
2023/04/05 00:03:19;;;;;;;14.00;11.50;;;;;;;2.07;83.41;102260.75;6239958;23;20004;-84
2023/04/05 00:05:45;;;;;;;11.77;10.57;;;;;;;2.01;82.76;102258.97;6239972;23;20004;-85
2023/04/05 00:08:22;;;;;;;13.18;11.23;;;;;;;1.91;83.79;102265.03;6239921;23;20717;-85
2023/04/05 00:10:48;;;;;;;12.55;10.80;;;;;;;1.91;83.21;102265.03;6237464;23;20004;-85
2023/04/05 00:13:14;;;;;;;14.52;11.52;;;;;;;1.84;84.06;102261.50;6239050;23;20004;-85
2023/04/05 00:15:39;;;;;;;13.45;11.10;;;;;;;1.81;84.05;102271.06;6239215;23;20013;-84
2023/04/05 00:18:05;;;;;;;13.25;11.20;;;;;;;1.80;84.49;102272.84;6239034;23;20032;-84
2023/04/05 00:20:30;;;;;;;13.43;11.32;;;;;;;1.71;84.25;102256.97;6237805;23;20066;-85
2023/04/05 00:22:56;;;;;;;13.30;11.27;;;;;;;1.68;84.58;102262.22;6238025;23;20008;-85
2023/04/05 00:25:21;;;;;;;12.05;10.85;;;;;;;1.71;84.65;102267.47;6211695;23;20405;-84
2023/04/05 00:27:47;;;;;;;15.45;11.68;;;;;;;1.59;84.98;102256.88;6237963;23;20007;-84
2023/04/05 00:30:19;;;;;;;13.25;11.80;;;;;;;1.56;85.88;102246.38;6238690;23;20011;-85
2023/04/05 00:32:46;;;;;;;13.57;12.10;;;;;;;1.53;85.78;102256.84;6237680;23;20418;-86
2023/04/05 00:35:12;;;;;;;16.30;12.10;;;;;;;1.54;85.29;102266.44;6239112;23;20085;-85
2023/04/05 00:37:37;;;;;;;15.55;12.50;;;;;;;1.47;86.63;102262.91;6238812;23;20003;-84
2023/04/05 00:40:03;;;;;;;15.80;12.73;;;;;;;1.45;86.15;102252.38;6238477;23;20015;-85
2023/04/05 00:42:28;;;;;;;15.93;12.95;;;;;;;1.48;86.75;102251.53;6208962;23;20004;-85
2023/04/05 00:44:54;;;;;;;17.13;13.48;;;;;;;1.40;86.20;102253.22;6211342;23;20342;-85
2023/04/05 00:47:20;;;;;;;17.25;13.15;;;;;;;1.34;86.97;102251.44;6238407;22;20362;-83
2023/04/05 00:49:45;;;;;;;14.00;11.68;;;;;;;1.31;87.34;102251.38;6238352;23;20054;-85
2023/04/05 00:52:11;;;;;;;14.20;12.65;;;;;;;1.25;87.71;102246.06;6237557;23;20012;-85
2023/04/05 00:54:38;;;;;;;15.00;12.27;;;;;;;1.26;87.57;102250.47;6211175;23;20014;-85
2023/04/05 00:57:05;;;;;;;17.40;13.10;;;;;;;1.20;88.20;102246.03;6238153;23;20189;-85
2023/04/05 00:59:31;;;;;;;14.95;12.18;;;;;;;1.17;89.63;102243.38;6239033;23;20114;-85
2023/04/05 01:02:05;;;;;;;15.82;12.88;;;;;;;1.19;89.95;102246.91;6258590;23;20408;-84
2023/04/05 01:04:32;;;;;;;15.07;12.00;;;;;;;1.10;88.39;102238.06;6255931;23;20000;-86
2023/04/05 01:07:20;;;;;;;16.65;12.77;;;;;;;1.04;89.93;102244.09;6258363;23;20008;-85
2023/04/05 01:09:55;;;;;;;17.23;14.10;;;;;;;1.05;89.27;102251.13;6254542;23;20033;-85
2023/04/05 01:12:24;;;;;;;14.93;12.52;;;;;;;0.96;88.22;102251.00;6259528;23;20022;-83
2023/04/05 01:14:51;;;;;;;14.55;12.73;;;;;;;0.97;89.19;102248.41;6259003;23;19999;-84
2023/04/05 01:17:21;;;;;;;17.00;13.00;;;;;;;0.94;87.71;102251.00;6261985;23;20424;-82
2023/04/05 01:19:53;;;;;;;14.75;12.38;;;;;;;0.88;87.21;102244.78;6242639;23;20364;-83
2023/04/05 01:23:00;;;;;;;16.55;13.23;;;;;;;0.88;87.15;102250.94;6212840;23;20008;-84
2023/04/05 01:25:44;;;;;;;15.15;13.00;;;;;;;0.83;87.57;102233.38;6237926;23;20015;-85
2023/04/05 01:28:29;;;;;;;16.70;13.73;;;;;;;0.67;87.24;102227.06;6238721;23;20004;-84
2023/04/05 01:31:10;;;;;;;17.02;12.98;;;;;;;0.72;87.30;102233.28;6236103;23;20073;-85
2023/04/05 01:34:15;;;;;;;15.85;12.93;;;;;;;0.69;87.14;102228.84;6238875;23;20004;-84
2023/04/05 01:36:53;;;;;;;18.00;13.75;;;;;;;0.63;89.02;102235.78;6150065;23;20012;-84
2023/04/05 01:39:20;;;;;;;15.68;13.18;;;;;;;0.61;88.65;102229.63;6232395;23;20004;-84
2023/04/05 01:41:46;;;;;;;17.38;13.63;;;;;;;0.56;89.13;102220.84;6265688;22;19996;-85
2023/04/05 01:44:11;;;;;;;18.65;14.35;;;;;;;0.59;88.54;102223.50;6266501;22;19996;-84
2023/04/05 01:46:36;;;;;;;16.48;13.23;;;;;;;0.53;88.32;102224.28;6253887;23;20330;-84
2023/04/05 01:49:02;;;;;;;16.42;14.40;;;;;;;0.47;89.15;102225.09;6252383;22;20008;-84
2023/04/05 01:51:27;;;;;;;16.67;14.80;;;;;;;0.47;89.24;102221.63;6248941;23;20028;-84
2023/04/05 01:53:53;;;;;;;17.40;14.43;;;;;;;0.46;89.43;102215.50;6241109;23;20094;-83
2023/04/05 01:56:18;;;;;;;18.63;14.65;;;;;;;0.42;89.83;102216.31;6215394;23;20087;-84
2023/04/05 01:58:43;;;;;;;16.80;14.15;;;;;;;0.32;89.91;102206.56;6213874;23;20061;-84
2023/04/05 02:01:08;;;;;;;19.13;14.05;;;;;;;0.31;90.23;102207.44;6240931;23;20069;-83
2023/04/05 02:03:34;;;;;;;16.35;14.20;;;;;;;0.32;90.07;102219.66;6221300;23;20008;-85
2023/04/05 02:05:59;;;;;;;16.58;14.02;;;;;;;0.29;90.20;102217.00;6248043;23;20004;-83
2023/04/05 02:08:25;;;;;;;21.45;15.35;;;;;;;0.21;90.55;102216.91;6248125;23;20010;-83
2023/04/05 02:10:52;;;;;;;16.45;14.60;;;;;;;0.16;91.25;102212.44;6246296;23;20686;-84
2023/04/05 02:13:17;;;;;;;18.75;15.43;;;;;;;0.17;91.47;102212.50;6238974;23;20011;-83
2023/04/05 02:15:48;;;;;;;16.05;13.95;;;;;;;0.22;91.69;102221.28;6237821;23;20000;-85
2023/04/05 02:18:13;;;;;;;18.52;14.63;;;;;;;0.13;91.99;102215.91;6238590;23;20268;-84
2023/04/05 02:20:38;;;;;;;19.17;14.88;;;;;;;0.07;91.43;102207.09;6236082;23;20008;-86
2023/04/05 02:23:03;;;;;;;18.27;15.10;;;;;;;0.06;92.46;102210.56;6210549;23;20089;-85
2023/04/05 02:25:29;;;;;;;18.40;15.13;;;;;;;-0.05;92.16;102210.41;6237717;23;20010;-84
2023/04/05 02:27:54;;;;;;;20.00;14.93;;;;;;;-0.02;93.00;102200.88;6238397;23;20087;-84
2023/04/05 02:30:20;;;;;;;20.35;15.25;;;;;;;-0.06;93.37;102212.16;6209911;23;20004;-84
2023/04/05 02:32:45;;;;;;;17.67;15.20;;;;;;;-0.08;94.26;102213.88;6209714;23;20008;-85
2023/04/05 02:35:10;;;;;;;18.40;15.20;;;;;;;-0.12;94.24;102209.47;6236738;23;20039;-83
2023/04/05 02:37:37;;;;;;;19.13;14.75;;;;;;;-0.19;93.72;102198.88;6209436;23;20004;-84
2023/04/05 02:40:06;;;;;;;19.13;15.27;;;;;;;-0.17;95.17;102205.88;6235799;23;20004;-84
2023/04/05 02:42:32;;;;;;;18.58;15.27;;;;;;;-0.17;94.63;102211.09;6209825;23;20004;-84
2023/04/05 02:44:57;;;;;;;18.85;15.98;;;;;;;-0.17;94.76;102207.59;6236456;23;20004;-84
2023/04/05 02:47:22;;;;;;;20.08;17.10;;;;;;;-0.15;94.68;102203.28;6209864;22;20004;-85
2023/04/05 02:49:48;;;;;;;18.67;15.43;;;;;;;-0.20;95.24;102197.13;6235629;23;20012;-84
2023/04/05 02:52:14;;;;;;;18.00;15.43;;;;;;;-0.26;94.14;102206.59;6209940;23;20011;-82
2023/04/05 02:54:39;;;;;;;20.77;16.00;;;;;;;-0.30;93.65;102202.19;6235674;23;20004;-85
2023/04/05 02:57:05;;;;;;;19.38;15.05;;;;;;;-0.37;93.95;102194.25;6236861;23;20061;-84
2023/04/05 02:59:30;;;;;;;17.95;14.98;;;;;;;-0.42;94.33;102202.00;6232729;23;20018;-84
2023/04/05 03:01:55;;;;;;;17.80;15.93;;;;;;;-0.37;95.03;102207.31;6239752;23;20004;-84
2023/04/05 03:04:21;;;;;;;19.85;15.88;;;;;;;-0.43;95.22;102191.50;6210730;23;20453;-87
2023/04/05 03:06:48;;;;;;;19.02;15.45;;;;;;;-0.39;95.19;102191.59;6237752;23;20035;-83
2023/04/05 03:09:14;;;;;;;18.15;16.00;;;;;;;-0.43;95.89;102183.66;6236996;23;20070;-85
2023/04/05 03:11:39;;;;;;;21.10;16.85;;;;;;;-0.40;96.03;102183.72;6210868;23;20012;-84
2023/04/05 03:14:04;;;;;;;21.58;16.23;;;;;;;-0.40;95.94;102187.22;6242380;23;20000;-84
2023/04/05 03:16:30;;;;;;;17.92;14.93;;;;;;;-0.46;96.11;102183.59;6260929;23;20059;-85
2023/04/05 03:18:56;;;;;;;20.20;15.55;;;;;;;-0.58;96.48;102173.84;6255781;23;20008;-85
2023/04/05 03:21:21;;;;;;;17.58;15.10;;;;;;;-0.51;96.66;102181.78;6244135;23;20441;-85
2023/04/05 03:23:47;;;;;;;19.40;15.65;;;;;;;-0.62;96.75;102180.75;6238208;23;20484;-85
2023/04/05 03:26:14;;;;;;;20.20;16.85;;;;;;;-0.65;97.51;102174.59;6238309;23;20004;-83
2023/04/05 03:28:43;;;;;;;19.58;15.50;;;;;;;-0.62;97.47;102177.28;6238025;23;20874;-84
2023/04/05 03:31:09;;;;;;;19.23;15.93;;;;;;;-0.62;97.39;102167.69;6237827;23;20073;-84
2023/04/05 03:33:34;;;;;;;19.40;15.57;;;;;;;-0.64;97.92;102173.75;6239211;23;20000;-83
2023/04/05 03:36:00;;;;;;;20.15;16.08;;;;;;;-0.69;97.64;102172.78;6210995;23;20011;-85
2023/04/05 03:38:27;;;;;;;17.58;14.55;;;;;;;-0.69;97.20;102171.03;6215118;23;20000;-84
2023/04/05 03:40:52;;;;;;;18.70;15.93;;;;;;;-0.74;97.33;102161.38;6226279;23;20000;-84
2023/04/05 03:43:18;;;;;;;19.75;15.82;;;;;;;-0.77;97.57;102170.03;6222136;23;20044;-85
2023/04/05 03:45:43;;;;;;;18.35;15.88;;;;;;;-0.74;98.22;102171.84;6241575;23;20039;-83
2023/04/05 03:48:08;;;;;;;17.00;15.20;;;;;;;-0.86;97.44;102165.53;6262528;22;20000;-84
2023/04/05 03:50:34;;;;;;;20.58;15.65;;;;;;;-0.88;97.39;102159.41;6263992;22;19988;-85
2023/04/05 03:52:59;;;;;;;17.85;15.18;;;;;;;-0.93;98.03;102155.81;6262092;23;20022;-83
2023/04/05 03:55:25;;;;;;;18.45;16.13;;;;;;;-0.88;98.72;102153.28;6261879;23;20046;-84
2023/04/05 03:57:51;;;;;;;19.67;16.40;;;;;;;-0.93;98.66;102153.22;6236130;23;20018;-84
2023/04/05 04:00:16;;;;;;;20.50;16.23;;;;;;;-0.89;98.80;102157.63;6244938;23;20019;-84
2023/04/05 04:02:47;;;;;;;20.30;16.70;;;;;;;-0.88;98.59;102161.13;6237578;23;20004;-84
2023/04/05 04:05:13;;;;;;;19.45;16.45;;;;;;;-0.92;98.19;102157.59;6238570;23;20030;-85
2023/04/05 04:07:40;;;;;;;19.67;15.70;;;;;;;-0.96;99.08;102155.78;6239522;23;20635;-84
2023/04/05 04:10:07;;;;;;;17.85;15.93;;;;;;;-0.99;98.85;102150.50;6212131;23;20008;-84
2023/04/05 04:12:32;;;;;;;18.75;16.45;;;;;;;-1.02;98.86;102153.06;6211074;23;20087;-85
2023/04/05 04:14:58;;;;;;;19.80;16.05;;;;;;;-1.15;98.43;102146.72;6237305;23;20448;-84
2023/04/05 04:17:35;;;;;;;20.63;16.50;;;;;;;-1.13;98.95;102147.66;6237348;23;20434;-86
2023/04/05 04:20:06;;;;;;;19.67;16.20;;;;;;;-1.15;99.05;102148.47;6208166;23;20015;-84
2023/04/05 04:22:32;;;;;;;20.27;16.80;;;;;;;-1.18;99.76;102145.78;6237401;23;20009;-85
2023/04/05 04:25:03;;;;;;;19.55;16.83;;;;;;;-1.22;99.71;102141.34;6237519;23;20103;-85
2023/04/05 04:27:34;;;;;;;19.88;15.98;;;;;;;-1.19;100.00;102149.25;6210447;23;20074;-85
2023/04/05 04:30:02;;;;;;;19.05;16.48;;;;;;;-1.24;99.93;102141.34;6236855;23;20484;-85
2023/04/05 04:32:50;;;;;;;21.27;17.23;;;;;;;-1.26;100.00;102145.66;6209794;23;20004;-85
2023/04/05 04:35:19;;;;;;;21.23;17.35;;;;;;;-1.26;100.00;102146.53;6236047;23;20012;-86
2023/04/05 04:37:51;;;;;;;20.95;16.50;;;;;;;-1.31;100.00;102148.19;6236434;23;20004;-84
2023/04/05 04:40:16;;;;;;;21.17;17.42;;;;;;;-1.29;100.00;102143.88;6210672;23;20004;-86
2023/04/05 04:42:45;;;;;;;21.73;17.00;;;;;;;-1.30;100.00;102151.66;6237757;23;20010;-85
2023/04/05 04:45:15;;;;;;;18.63;15.77;;;;;;;-1.28;100.00;102148.25;6238185;23;20011;-85
2023/04/05 04:47:41;;;;;;;18.77;16.00;;;;;;;-1.35;100.00;102145.47;6238161;22;20468;-84
2023/04/05 04:50:08;;;;;;;20.00;16.25;;;;;;;-1.32;100.00;102153.38;6236946;23;20038;-84
2023/04/05 04:52:33;;;;;;;20.55;16.75;;;;;;;-1.38;100.00;102140.19;6234729;23;20004;-85
2023/04/05 04:54:58;;;;;;;17.33;15.50;;;;;;;-1.34;100.00;102148.13;6234788;23;20046;-85
2023/04/05 04:57:24;;;;;;;19.13;16.67;;;;;;;-1.43;100.00;102145.31;6238726;23;20000;-84
2023/04/05 04:59:50;;;;;;;19.00;16.63;;;;;;;-1.39;100.00;102149.75;6237176;23;20019;-84
2023/04/05 05:02:15;;;;;;;22.75;18.27;;;;;;;-1.45;100.00;102144.44;6239182;23;20007;-85
2023/04/05 05:04:42;;;;;;;21.70;17.67;;;;;;;-1.40;100.00;102152.34;6238127;23;20000;-85
2023/04/05 05:07:08;;;;;;;21.13;17.35;;;;;;;-1.40;100.00;102142.78;6239185;23;20065;-83
2023/04/05 05:09:33;;;;;;;22.83;18.08;;;;;;;-1.36;100.00;102147.22;6239207;23;20091;-84
2023/04/05 05:12:00;;;;;;;20.52;18.27;;;;;;;-1.42;100.00;102147.13;6246231;23;20010;-84
2023/04/05 05:14:25;;;;;;;20.00;17.25;;;;;;;-1.40;100.00;102141.91;6221000;23;20015;-85
2023/04/05 05:16:53;;;;;;;20.50;16.75;;;;;;;-1.36;100.00;102151.56;6245568;23;20000;-84
2023/04/05 05:19:18;;;;;;;19.45;16.65;;;;;;;-1.39;100.00;102148.88;6239625;23;20062;-86
2023/04/05 05:21:45;;;;;;;23.73;18.65;;;;;;;-1.41;100.00;102146.25;6215136;23;20012;-85
2023/04/05 05:24:10;;;;;;;19.90;17.10;;;;;;;-1.43;100.00;102147.94;6239168;23;20330;-84
2023/04/05 05:26:36;;;;;;;21.35;18.55;;;;;;;-1.41;100.00;102145.38;6258986;23;20014;-85
2023/04/05 05:29:02;;;;;;;23.88;20.08;;;;;;;-1.36;100.00;102144.59;6261624;23;20027;-86
2023/04/05 05:31:28;;;;;;;22.58;17.95;;;;;;;-1.37;100.00;102142.84;6256750;23;20004;-85
2023/04/05 05:33:53;;;;;;;24.77;19.40;;;;;;;-1.31;100.00;102145.56;6238875;23;20031;-85
2023/04/05 05:36:18;;;;;;;21.83;18.30;;;;;;;-1.37;100.00;102134.13;6239423;23;19997;-86
2023/04/05 05:38:44;;;;;;;23.55;18.77;;;;;;;-1.36;100.00;102133.28;6211428;23;20008;-84
2023/04/05 05:41:09;;;;;;;21.50;18.20;;;;;;;-1.31;100.00;102137.72;6212719;23;20016;-85
2023/04/05 05:43:34;;;;;;;23.13;17.98;;;;;;;-1.28;100.00;102136.91;6213560;23;20014;-86
2023/04/05 05:46:01;;;;;;;20.65;18.23;;;;;;;-1.21;100.00;102148.34;6238383;23;20023;-86
2023/04/05 05:48:26;;;;;;;21.98;18.42;;;;;;;-1.25;100.00;102142.22;6238521;22;20016;-87
2023/04/05 05:50:53;;;;;;;24.63;19.05;;;;;;;-1.19;100.00;102142.31;6240215;23;20054;-83
2023/04/05 05:53:19;;;;;;;22.15;19.02;;;;;;;-1.13;100.00;102147.66;6238738;23;20010;-85
2023/04/05 05:55:44;;;;;;;25.63;18.55;;;;;;;-1.10;100.00;102146.81;6239125;22;20058;-85
2023/04/05 05:58:10;;;;;;;22.30;18.50;;;;;;;-0.98;100.00;102149.63;6264343;22;20016;-83
2023/04/05 06:00:37;;;;;;;19.98;17.33;;;;;;;-0.97;100.00;102148.78;6261656;23;19995;-84
2023/04/05 06:03:03;;;;;;;21.55;18.20;;;;;;;-0.92;100.00;102155.00;6262175;23;20011;-84
2023/04/05 06:05:28;;;;;;;19.80;17.58;;;;;;;-0.82;100.00;102151.66;6260087;23;20008;-84
2023/04/05 06:07:54;;;;;;;21.40;18.08;;;;;;;-0.73;100.00;102147.44;6254508;23;20003;-86
2023/04/05 06:10:19;;;;;;;21.30;16.92;;;;;;;-0.46;100.00;102157.44;6241153;23;20115;-84
2023/04/05 06:12:45;;;;;;;21.10;18.13;;;;;;;-0.31;100.00;102148.09;6239247;23;20426;-87
2023/04/05 06:15:10;;;;;;;20.08;16.63;;;;;;;-0.07;100.00;102144.97;6212605;23;20000;-86
2023/04/05 06:17:40;;;;;;;19.90;16.65;;;;;;;0.15;99.24;102148.72;6239769;23;20004;-85
2023/04/05 06:20:08;;;;;;;19.58;16.92;;;;;;;0.47;97.34;102151.75;6212514;23;20068;-87
2023/04/05 06:22:35;;;;;;;20.85;16.25;;;;;;;0.73;94.93;102143.31;6239660;23;20315;-86
2023/04/05 06:25:01;;;;;;;19.20;16.92;;;;;;;1.11;92.50;102146.28;6239929;23;20083;-86
2023/04/05 06:27:27;;;;;;;18.40;16.00;;;;;;;1.31;90.64;102151.72;6238638;23;20008;-86
2023/04/05 06:29:54;;;;;;;22.23;16.98;;;;;;;1.41;89.36;102144.78;6209911;23;20728;-86
2023/04/05 06:32:19;;;;;;;18.20;16.02;;;;;;;1.51;87.21;102141.38;6237512;23;20148;-86
2023/04/05 06:34:47;;;;;;;18.35;15.82;;;;;;;1.66;86.12;102141.47;6236820;23;20068;-86
2023/04/05 06:37:13;;;;;;;20.05;15.68;;;;;;;1.82;84.85;102144.19;6211036;23;20057;-87
2023/04/05 06:39:38;;;;;;;17.75;15.30;;;;;;;1.91;84.23;102134.63;6234081;23;20146;-85
2023/04/05 06:42:03;;;;;;;20.40;14.85;;;;;;;2.05;81.51;102142.59;6210902;23;19999;-86
2023/04/05 06:44:29;;;;;;;20.08;15.52;;;;;;;2.29;82.08;102147.03;6236343;23;20004;-86
2023/04/05 06:46:54;;;;;;;17.45;15.10;;;;;;;2.49;81.63;102141.88;6235395;23;20016;-85
2023/04/05 06:49:20;;;;;;;16.92;14.68;;;;;;;2.70;80.19;102146.31;6239551;22;20070;-86
2023/04/05 06:51:45;;;;;;;17.52;14.73;;;;;;;2.87;78.86;102146.34;6237959;23;20054;-86
2023/04/05 06:54:10;;;;;;;16.40;14.63;;;;;;;3.10;77.43;102154.28;6238552;23;20096;-85
2023/04/05 06:56:38;;;;;;;19.15;15.45;;;;;;;3.25;76.94;102142.00;6211029;23;20023;-87
2023/04/05 06:59:03;;;;;;;19.05;14.65;;;;;;;3.49;75.25;102153.41;6236753;23;20004;-85
2023/04/05 07:01:29;;;;;;;15.98;14.35;;;;;;;3.57;74.20;102145.50;6210551;23;20015;-86
2023/04/05 07:03:54;;;;;;;17.77;14.32;;;;;;;3.90;73.38;102148.06;6210618;23;20012;-86
2023/04/05 07:06:22;;;;;;;17.42;14.55;;;;;;;4.15;72.43;102150.63;6236529;23;20252;-86
2023/04/05 07:08:48;;;;;;;17.08;13.65;;;;;;;4.41;71.06;102150.53;6234399;23;20000;-84
2023/04/05 07:11:14;;;;;;;16.08;13.15;;;;;;;4.62;69.23;102139.00;6239103;23;20054;-85
2023/04/05 07:13:39;;;;;;;16.67;14.07;;;;;;;4.95;68.50;102146.69;6236429;23;20066;-86
2023/04/05 07:16:05;;;;;;;15.65;14.00;;;;;;;5.17;68.77;102151.81;6235090;23;20023;-85
2023/04/05 07:18:30;;;;;;;15.68;13.52;;;;;;;5.45;67.58;102148.06;6234539;23;20004;-85
2023/04/05 07:21:00;;;;;;;15.38;13.35;;;;;;;5.71;65.56;102146.94;6236090;23;20087;-84
2023/04/05 07:23:27;;;;;;;17.00;12.50;;;;;;;6.27;63.79;102142.84;6213170;23;20422;-86
2023/04/05 07:26:03;;;;;;;15.10;12.80;;;;;;;6.49;62.59;102149.63;6238006;23;20004;-86
2023/04/05 07:28:30;;;;;;;16.25;13.02;;;;;;;6.90;61.09;102153.47;6233829;23;20326;-85
2023/04/05 07:30:55;;;;;;;13.93;11.88;;;;;;;7.20;59.16;102159.19;6243414;23;20000;-85
2023/04/05 07:33:21;;;;;;;14.30;12.50;;;;;;;7.52;59.74;102144.50;6249286;23;20011;-88
2023/04/05 07:35:52;;;;;;;15.55;12.02;;;;;;;8.07;57.38;102147.03;6250479;23;20004;-85
2023/04/05 07:38:17;;;;;;;14.90;12.57;;;;;;;8.36;56.03;102140.25;6237145;23;20047;-85
2023/04/05 07:40:42;;;;;;;16.20;13.05;;;;;;;8.51;57.12;102144.41;6231498;23;20032;-84
2023/04/05 07:43:08;;;;;;;14.07;11.15;;;;;;;8.63;53.15;102144.13;6206319;23;20008;-86
2023/04/05 07:45:33;;;;;;;14.95;11.57;;;;;;;8.69;53.18;102134.25;6236971;23;20004;-85
2023/04/05 07:47:58;;;;;;;14.75;10.77;;;;;;;9.12;52.53;102135.91;6235904;22;20335;-85
2023/04/05 07:50:25;;;;;;;12.80;11.05;;;;;;;9.55;53.46;102140.16;6238045;23;20322;-85
2023/04/05 07:52:50;;;;;;;13.73;10.85;;;;;;;9.88;50.05;102141.03;6237880;23;20027;-85
2023/04/05 07:55:16;;;;;;;12.13;10.93;;;;;;;10.18;48.75;102128.66;6237554;23;20008;-85
2023/04/05 07:57:41;;;;;;;13.90;11.25;;;;;;;10.54;48.99;102140.97;6207003;23;20050;-85
2023/04/05 08:00:12;;;;;;;11.27;10.05;;;;;;;10.88;46.74;102139.00;6251094;22;20107;-86
2023/04/05 08:02:37;;;;;;;13.43;10.32;;;;;;;11.21;43.93;102142.38;6264003;22;20159;-85
2023/04/05 08:05:03;;;;;;;14.20;10.77;;;;;;;11.40;45.42;102142.63;6235579;23;19996;-85
2023/04/05 08:07:28;;;;;;;10.77;9.65;;;;;;;11.85;44.80;102130.47;6224314;23;20004;-85
2023/04/05 08:09:56;;;;;;;11.75;9.63;;;;;;;12.14;42.68;102124.94;6253956;23;20003;-84
2023/04/05 08:12:22;;;;;;;11.27;9.38;;;;;;;12.17;42.04;102129.31;6246502;23;20012;-85
2023/04/05 08:14:47;;;;;;;11.07;9.82;;;;;;;12.59;43.46;102124.13;6245132;23;20012;-84
2023/04/05 08:17:13;;;;;;;12.23;9.93;;;;;;;12.92;40.15;102127.28;6242362;23;20035;-83
2023/04/05 08:19:39;;;;;;;13.27;8.90;;;;;;;13.35;41.54;102116.66;6242656;23;20008;-84
2023/04/05 08:22:05;;;;;;;11.32;9.77;;;;;;;13.65;39.43;102123.34;6243509;23;20058;-84
2023/04/05 08:24:30;;;;;;;14.32;9.85;;;;;;;14.01;37.07;102129.84;6241408;23;20018;-84
2023/04/05 08:26:56;;;;;;;11.23;8.95;;;;;;;13.93;36.70;102128.38;6239453;23;20493;-84
2023/04/05 08:29:21;;;;;;;11.88;9.40;;;;;;;13.69;35.88;102124.09;6240724;23;20028;-86
2023/04/05 08:31:46;;;;;;;10.90;9.00;;;;;;;13.93;35.98;102133.72;6240005;23;20007;-86
2023/04/05 08:34:12;;;;;;;12.00;9.95;;;;;;;14.09;35.92;102125.88;6239485;23;20004;-85
2023/04/05 08:36:37;;;;;;;10.65;9.25;;;;;;;14.64;34.74;102131.38;6243218;23;20010;-85
2023/04/05 08:39:02;;;;;;;10.63;9.25;;;;;;;14.85;34.41;102129.50;6239777;23;20034;-80
2023/04/05 08:41:40;;;;;;;12.68;9.80;;;;;;;15.36;35.81;102127.84;6238428;23;20012;-83
2023/04/05 08:44:08;;;;;;;11.88;9.55;;;;;;;15.94;32.37;102119.50;6215340;23;20597;-83
2023/04/05 08:46:34;;;;;;;12.90;9.55;;;;;;;15.84;32.41;102120.06;6245295;23;20393;-89
2023/04/05 08:49:06;;;;;;;10.55;9.45;;;;;;;15.39;31.44;102125.03;6249174;22;20035;-85
2023/04/05 08:51:32;;;;;;;11.52;9.68;;;;;;;15.96;31.37;102115.84;6245973;23;20015;-85
2023/04/05 08:53:58;;;;;;;11.68;9.45;;;;;;;15.91;30.05;102114.28;6242200;23;20015;-85
2023/04/05 08:56:46;;;;;;;11.70;8.70;;;;;;;16.74;32.67;102131.28;6237708;23;20029;-85
2023/04/05 08:59:15;;;;;;;31.55;10.50;;;;;;;16.99;29.39;102128.06;6240547;23;20086;-86
2023/04/05 09:01:42;;;;;;;14.15;9.50;;;;;;;17.78;29.17;102118.97;6210602;23;20019;-84
2023/04/05 09:04:23;;;;;;;12.25;9.65;;;;;;;18.13;29.80;102106.88;6239320;23;20000;-86
2023/04/05 09:06:56;;;;;;;12.52;9.98;;;;;;;18.10;28.40;102114.28;6237904;23;20286;-86
2023/04/05 09:09:22;;;;;;;;;;;;;;;19.29;28.69;102120.03;6238345;23;20016;-84
2023/04/05 09:11:47;;;;;;;10.43;9.20;;;;;;;18.47;27.78;102106.56;6237087;23;19927;-85
2023/04/05 09:14:14;;;;;;;11.43;10.23;;;;;;;18.96;26.05;102109.66;6236241;23;20008;-87
2023/04/05 09:16:40;;;;;;;13.20;10.60;;;;;;;19.25;26.00;102117.66;6235623;23;20779;-86
2023/04/05 09:19:06;;;;;;;11.00;9.82;;;;;;;19.03;25.49;102110.13;6235827;23;20008;-86
2023/04/05 09:22:01;;;;;;;11.80;9.35;;;;;;;19.42;26.83;102111.97;6209670;23;20088;-86
2023/04/05 09:24:40;;;;;;;10.52;9.50;;;;;;;19.74;27.42;102096.28;6235470;23;20004;-85
2023/04/05 09:27:17;;;;;;;12.70;9.80;;;;;;;20.52;26.88;102097.97;6234428;23;20130;-84
2023/04/05 09:29:44;;;;;;;12.32;10.52;;;;;;;20.51;23.43;102093.53;6234734;23;20003;-86
2023/04/05 09:32:11;;;;;;;10.88;8.88;;;;;;;20.51;22.31;102093.53;6235833;23;20012;-86
2023/04/05 09:34:38;;;;;;;12.48;9.73;;;;;;;20.09;22.15;102092.94;6234689;23;20004;-86
2023/04/05 09:37:13;;;;;;;10.95;9.35;;;;;;;20.58;24.28;102098.41;6234694;23;20015;-87
2023/04/05 09:39:38;;;;;;;8.75;7.85;;;;;;;21.04;21.40;102094.13;6235968;23;20008;-86
2023/04/05 09:42:06;;;;;;;9.13;8.20;;;;;;;21.59;20.78;102093.50;6236651;23;20026;-85
2023/04/05 09:45:00;;;;;;;13.00;9.10;;;;;;;22.18;22.84;102097.06;6259327;23;20026;-86
2023/04/05 09:47:29;;;;;;;9.80;8.80;;;;;;;22.13;20.67;102098.28;6259210;22;20087;-86
2023/04/05 09:49:56;;;;;;;10.50;9.38;;;;;;;22.48;20.62;102088.28;6252581;23;20452;-85
2023/04/05 09:52:30;;;;;;;11.20;9.43;;;;;;;22.38;20.74;102094.47;6237171;23;20031;-85
2023/04/05 09:54:58;;;;;;;9.65;7.85;;;;;;;22.37;19.23;102090.03;6236359;23;20054;-85
2023/04/05 09:57:31;;;;;;;9.35;8.20;;;;;;;22.09;19.51;102085.94;6208558;23;20028;-85
2023/04/05 09:59:56;;;;;;;9.88;8.57;;;;;;;21.86;19.67;102081.47;6237638;23;20011;-86
2023/04/05 10:02:22;;;;;;;10.80;8.07;;;;;;;22.71;19.83;102080.97;6237535;23;20083;-87
2023/04/05 10:04:48;;;;;;;8.85;7.90;;;;;;;23.35;19.23;102068.28;6237470;23;20007;-86
2023/04/05 10:07:15;;;;;;;9.50;7.95;;;;;;;23.52;19.29;102077.69;6234338;23;20014;-85
2023/04/05 10:09:42;;;;;;;9.40;8.40;;;;;;;23.95;18.00;102063.09;6236628;23;20035;-86
2023/04/05 10:12:09;;;;;;;8.48;7.65;;;;;;;23.47;18.51;102068.22;6231825;23;20190;-85
2023/04/05 10:14:36;;;;;;;10.73;7.80;;;;;;;23.22;18.49;102059.47;6235717;22;19992;-86
2023/04/05 10:17:10;;;;;;;9.50;7.55;;;;;;;23.48;18.76;102059.94;6264719;22;20042;-85
2023/04/05 10:20:13;;;;;;;9.25;7.30;;;;;;;23.60;19.33;102071.59;6258631;22;20023;-85
2023/04/05 10:22:51;;;;;;;9.65;7.72;;;;;;;23.10;19.12;102068.66;6232489;23;20022;-85
2023/04/05 10:25:39;;;;;;;10.50;7.90;;;;;;;23.42;19.58;102054.19;6227750;23;20011;-85
2023/04/05 10:28:10;;;;;;;8.65;7.75;;;;;;;23.71;18.20;102055.25;6243279;23;20004;-85
2023/04/05 10:30:50;;;;;;;7.88;7.07;;;;;;;24.95;17.92;102051.38;6241368;23;20007;-87
2023/04/05 10:33:23;;;;;;;8.00;7.20;;;;;;;24.72;17.30;102050.78;6242687;23;20004;-86
2023/04/05 10:36:03;;;;;;;10.32;8.20;;;;;;;24.76;17.51;102053.09;6241568;23;20000;-86
2023/04/05 10:38:34;;;;;;;9.32;7.47;;;;;;;25.33;17.31;102047.81;6247424;23;20011;-85
2023/04/05 10:41:13;;;;;;;9.02;7.70;;;;;;;25.62;17.47;102050.47;6256657;23;20030;-85
2023/04/05 10:43:40;;;;;;;9.57;8.00;;;;;;;25.97;18.16;102041.66;6243861;23;20004;-84
2023/04/05 10:46:06;;;;;;;8.23;7.43;;;;;;;25.65;15.64;102044.75;6256122;23;19996;-85
2023/04/05 10:49:00;;;;;;;7.78;6.97;;;;;;;26.47;17.65;102057.69;6238868;22;20038;-86
2023/04/05 10:51:25;;;;;;;;;;;;;;;28.15;17.88;102044.06;6238326;23;20016;-85
2023/04/05 10:53:51;;;;;;;8.55;7.13;;;;;;;26.85;14.36;102047.50;6237552;23;20670;-86
2023/04/05 10:56:18;;;;;;;8.50;7.53;;;;;;;26.72;14.99;102045.16;6209338;23;20000;-85
2023/04/05 10:58:47;;;;;;;8.48;7.45;;;;;;;25.85;15.17;102040.13;6235855;23;20031;-86
2023/04/05 11:01:12;;;;;;;8.55;7.55;;;;;;;25.39;15.36;102040.94;6209351;23;20065;-85
2023/04/05 11:03:44;;;;;;;8.60;7.70;;;;;;;25.44;15.71;102039.47;6236400;23;20452;-87
2023/04/05 11:06:34;;;;;;;10.77;8.10;;;;;;;26.60;15.60;102035.47;6234672;23;20039;-86
2023/04/05 11:09:17;;;;;;;9.63;7.30;;;;;;;26.49;16.21;102033.78;6228752;23;20011;-86
2023/04/05 11:11:44;;;;;;;;;;;;;;;28.05;16.26;102030.50;6236560;23;20000;-87
2023/04/05 11:14:27;;;;;;;8.57;7.68;;;;;;;26.83;15.81;102027.66;6236422;23;19915;-85
2023/04/05 11:16:55;;;;;;;7.72;6.82;;;;;;;27.36;14.50;102020.47;6208715;23;20012;-85
2023/04/05 11:19:46;;;;;;;8.02;7.22;;;;;;;27.54;15.60;102022.13;6236682;23;20086;-86